createdAt,value
2019-05-11T00:01:27.428Z,8.68
2019-05-11T00:03:54.310Z,8.71
2019-05-11T00:06:21.146Z,8.90
2019-05-11T00:08:48.181Z,8.92
2019-05-11T00:11:15.129Z,8.95
2019-05-11T00:13:41.891Z,8.99
2019-05-11T00:16:08.787Z,9.02
2019-05-11T00:18:35.572Z,8.96
2019-05-11T00:21:02.610Z,8.96
2019-05-11T00:23:29.368Z,8.92
2019-05-11T00:25:56.231Z,8.84
2019-05-11T00:28:23.122Z,8.84
2019-05-11T00:30:50.191Z,8.92
2019-05-11T00:33:16.968Z,8.96
2019-05-11T00:35:44.021Z,8.93
2019-05-11T00:38:10.811Z,8.99
2019-05-11T00:40:37.642Z,9.06
2019-05-11T00:43:04.531Z,9.08
2019-05-11T00:45:31.406Z,9.08
2019-05-11T00:47:58.383Z,9.22
2019-05-11T00:50:38.027Z,9.40
2019-05-11T00:52:54.343Z,9.34
2019-05-11T00:55:21.235Z,9.34
2019-05-11T00:57:48.206Z,9.45
2019-05-11T01:00:15.728Z,9.36
2019-05-11T01:02:42.748Z,9.41
2019-05-11T01:05:09.878Z,9.41
2019-05-11T01:07:36.670Z,9.38
2019-05-11T01:10:21.798Z,9.51
2019-05-11T01:12:36.224Z,9.73
2019-05-11T01:15:03.707Z,9.72
2019-05-11T01:17:30.477Z,9.63
2019-05-11T01:19:58.524Z,9.71
2019-05-11T01:22:25.522Z,9.73
2019-05-11T01:24:52.722Z,9.71
2019-05-11T01:27:19.511Z,9.67
2019-05-11T01:29:46.337Z,9.54
2019-05-11T01:32:14.311Z,9.48
2019-05-11T01:34:41.226Z,9.39
2019-05-11T01:37:08.105Z,9.30
2019-05-11T01:39:34.885Z,9.76
2019-05-11T01:42:01.639Z,9.63
2019-05-11T01:44:28.512Z,9.57
2019-05-11T01:46:55.310Z,9.45
2019-05-11T01:49:22.288Z,9.47
2019-05-11T01:51:49.070Z,9.40
2019-05-11T01:54:15.833Z,9.43
2019-05-11T01:56:42.621Z,9.58
2019-05-11T01:59:09.591Z,9.52
2019-05-11T02:01:36.370Z,9.42
2019-05-11T02:04:03.449Z,9.33
2019-05-11T02:06:30.230Z,9.43
2019-05-11T02:08:57.583Z,9.39
2019-05-11T02:11:24.405Z,9.41
2019-05-11T02:13:51.253Z,9.36
2019-05-11T02:16:18.209Z,9.23
2019-05-11T02:18:45.113Z,9.29
2019-05-11T02:21:11.890Z,9.17
2019-05-11T02:23:38.720Z,9.19
2019-05-11T02:26:05.557Z,9.24
2019-05-11T02:28:32.424Z,9.22
2019-05-11T02:30:59.230Z,9.23
2019-05-11T02:33:26.134Z,9.17
2019-05-11T02:35:53.000Z,9.24
2019-05-11T02:38:19.890Z,9.24
2019-05-11T02:40:46.686Z,9.31
2019-05-11T02:43:13.727Z,9.41
2019-05-11T02:45:41.945Z,9.45
2019-05-11T02:48:09.565Z,9.48
2019-05-11T02:50:37.236Z,9.55
2019-05-11T02:53:04.597Z,9.56
2019-05-11T02:55:32.945Z,9.57
2019-05-11T02:58:00.237Z,9.62
2019-05-11T03:00:36.020Z,9.64
2019-05-11T03:03:02.785Z,9.64
2019-05-11T03:05:29.884Z,9.61
2019-05-11T03:07:57.167Z,9.54
2019-05-11T03:10:24.030Z,9.54
2019-05-11T03:12:50.896Z,9.65
2019-05-11T03:15:17.871Z,9.61
2019-05-11T03:17:44.652Z,9.65
2019-05-11T03:20:11.548Z,9.74
2019-05-11T03:22:38.449Z,9.77
2019-05-11T03:25:05.347Z,9.79
2019-05-11T03:27:32.232Z,9.83
2019-05-11T03:30:01.142Z,9.92
2019-05-11T03:32:28.899Z,9.78
2019-05-11T03:34:55.945Z,9.86
2019-05-11T03:37:22.967Z,9.85
2019-05-11T03:39:49.780Z,9.86
2019-05-11T03:42:16.585Z,9.79
2019-05-11T03:44:44.473Z,9.76
2019-05-11T03:47:11.251Z,9.75
2019-05-11T03:49:38.059Z,9.75
2019-05-11T03:52:04.865Z,9.76
2019-05-11T03:54:31.746Z,9.77
2019-05-11T03:56:58.534Z,9.75
2019-05-11T03:59:25.445Z,9.75
2019-05-11T04:01:52.241Z,9.74
2019-05-11T04:04:19.083Z,9.67
2019-05-11T04:06:45.848Z,9.68
2019-05-11T04:09:12.624Z,9.73
2019-05-11T04:11:39.358Z,9.78
2019-05-11T04:14:06.188Z,9.89
2019-05-11T04:16:33.013Z,9.92
2019-05-11T04:18:59.784Z,10.06
2019-05-11T04:21:26.678Z,10.19
2019-05-11T04:23:53.480Z,10.30
2019-05-11T04:26:20.291Z,10.46
2019-05-11T04:28:48.203Z,10.87
2019-05-11T04:31:15.008Z,10.80
2019-05-11T04:33:41.875Z,10.84
2019-05-11T04:36:08.626Z,10.92
2019-05-11T04:38:35.451Z,10.86
2019-05-11T04:41:02.249Z,10.99
2019-05-11T04:43:29.078Z,10.93
2019-05-11T04:45:55.834Z,11.03
2019-05-11T04:48:22.584Z,11.21
2019-05-11T04:50:49.533Z,11.51
2019-05-11T04:53:16.366Z,11.70
2019-05-11T04:55:43.128Z,12.24
2019-05-11T04:58:09.927Z,12.60
2019-05-11T05:00:36.697Z,12.99
2019-05-11T05:03:03.643Z,13.53
2019-05-11T05:05:30.465Z,13.02
2019-05-11T05:08:08.986Z,13.07
2019-05-11T05:10:26.012Z,12.93
2019-05-11T05:12:57.887Z,12.49
2019-05-11T05:15:22.005Z,12.73
2019-05-11T05:17:48.784Z,13.01
2019-05-11T05:20:15.687Z,13.51
2019-05-11T05:22:42.487Z,13.73
2019-05-11T05:25:09.284Z,13.66
2019-05-11T05:27:36.039Z,13.56
2019-05-11T05:30:04.356Z,14.22
2019-05-11T05:32:31.279Z,14.11
2019-05-11T05:34:58.203Z,14.03
2019-05-11T05:37:25.197Z,13.91
2019-05-11T05:39:52.066Z,14.16
2019-05-11T05:42:18.875Z,13.57
2019-05-11T05:44:45.683Z,13.63
2019-05-11T05:47:12.532Z,13.63
2019-05-11T05:49:39.291Z,13.63
2019-05-11T05:52:06.423Z,13.37
2019-05-11T05:54:33.539Z,13.44
2019-05-11T05:57:00.326Z,13.70
2019-05-11T05:59:27.082Z,13.70
2019-05-11T06:01:53.922Z,14.18
2019-05-11T06:04:20.666Z,13.90
2019-05-11T06:06:47.564Z,13.50
2019-05-11T06:09:14.512Z,13.77
2019-05-11T06:11:41.362Z,13.77
2019-05-11T06:14:08.116Z,13.92
2019-05-11T06:16:34.847Z,13.83
2019-05-11T06:19:01.626Z,14.48
2019-05-11T06:21:28.975Z,14.77
2019-05-11T06:23:56.248Z,14.42
2019-05-11T06:26:23.005Z,14.37
2019-05-11T06:28:49.749Z,14.90
2019-05-11T06:31:16.574Z,14.95
2019-05-11T06:33:43.340Z,15.28
2019-05-11T06:36:10.209Z,14.94
2019-05-11T06:38:36.967Z,14.84
2019-05-11T06:41:03.784Z,14.61
2019-05-11T06:43:30.525Z,14.51
2019-05-11T06:45:57.848Z,14.48
2019-05-11T06:48:25.009Z,14.28
2019-05-11T06:50:51.854Z,14.10
2019-05-11T06:53:18.620Z,14.23
2019-05-11T06:55:45.412Z,14.44
2019-05-11T06:58:12.215Z,14.87
2019-05-11T07:00:38.974Z,15.28
2019-05-11T07:03:05.755Z,15.43
2019-05-11T07:05:32.637Z,14.96
2019-05-11T07:07:59.443Z,14.76
2019-05-11T07:10:26.263Z,14.99
2019-05-11T07:12:53.369Z,14.88
2019-05-11T07:15:21.298Z,15.00
2019-05-11T07:17:48.152Z,15.24
2019-05-11T07:20:15.068Z,15.36
2019-05-11T07:22:41.824Z,15.33
2019-05-11T07:25:08.604Z,15.46
2019-05-11T07:27:35.562Z,15.31
2019-05-11T07:30:06.444Z,15.06
2019-05-11T07:32:33.280Z,15.15
2019-05-11T07:35:00.289Z,15.68
2019-05-11T07:37:28.028Z,15.99
2019-05-11T07:39:54.999Z,16.06
2019-05-11T07:42:22.010Z,16.16
2019-05-11T07:44:48.705Z,15.78
2019-05-11T07:47:15.452Z,15.64
2019-05-11T07:49:42.202Z,15.53
2019-05-11T07:52:09.114Z,15.51
2019-05-11T07:54:38.365Z,15.59
2019-05-11T07:57:04.955Z,15.75
2019-05-11T07:59:31.729Z,15.33
2019-05-11T08:01:58.591Z,15.50
2019-05-11T08:04:25.363Z,15.83
2019-05-11T08:06:52.359Z,16.13
2019-05-11T08:09:40.506Z,16.13
2019-05-11T08:12:22.201Z,16.24
2019-05-11T08:15:24.854Z,16.18
2019-05-11T08:17:52.110Z,15.74
2019-05-11T08:20:19.539Z,15.59
2019-05-11T08:22:48.170Z,15.71
2019-05-11T08:31:29.327Z,15.82
2019-05-11T08:40:51.030Z,16.35
2019-05-11T08:43:38.974Z,16.35
2019-05-11T08:46:09.923Z,16.60
2019-05-11T08:48:38.953Z,16.29
2019-05-11T08:51:08.521Z,16.29
2019-05-11T08:53:38.754Z,16.28
2019-05-11T08:56:50.953Z,15.84
2019-05-11T08:59:23.636Z,15.78
2019-05-11T09:11:16.048Z,16.53
2019-05-11T09:37:05.136Z,17.32
2019-05-11T09:47:27.775Z,17.77
2019-05-11T09:50:00.307Z,17.64
2019-05-11T09:52:41.808Z,17.70
2019-05-11T09:55:10.504Z,17.99
2019-05-11T09:58:19.547Z,18.10
2019-05-11T10:00:32.068Z,18.07
2019-05-11T10:03:08.263Z,18.33
2019-05-11T10:05:51.748Z,18.34
2019-05-11T10:35:00.012Z,18.43
2019-05-11T10:57:03.271Z,19.34
2019-05-11T11:02:25.085Z,19.08
2019-05-11T11:04:54.891Z,19.22
2019-05-11T11:14:13.990Z,17.86
2019-05-11T11:21:22.945Z,18.43
2019-05-11T11:27:29.109Z,18.82
2019-05-11T11:29:58.592Z,19.00
2019-05-11T11:32:27.898Z,19.33
2019-05-11T11:34:57.737Z,19.41
2019-05-11T11:37:25.569Z,18.83
2019-05-11T11:39:53.157Z,19.26
2019-05-11T11:42:21.022Z,19.33
2019-05-11T11:44:48.791Z,18.78
2019-05-11T11:47:21.278Z,18.96
2019-05-11T11:49:47.655Z,19.33
2019-05-11T11:52:16.089Z,19.26
2019-05-11T11:55:08.509Z,19.48
2019-05-11T11:57:40.189Z,19.47
2019-05-11T12:00:09.571Z,19.70
2019-05-11T12:02:38.758Z,19.59
2019-05-11T12:05:08.956Z,19.75
2019-05-11T12:07:38.636Z,19.83
2019-05-11T12:10:08.004Z,19.85
2019-05-11T12:12:35.631Z,19.90
2019-05-11T12:15:04.632Z,20.21
2019-05-11T12:17:32.611Z,19.93
2019-05-11T12:20:00.707Z,19.96
2019-05-11T12:22:29.079Z,20.11
2019-05-11T12:24:58.932Z,20.25
2019-05-11T12:27:28.584Z,20.05
2019-05-11T12:29:58.170Z,19.91
2019-05-11T12:32:45.948Z,19.74
2019-05-11T12:35:14.415Z,19.91
2019-05-11T12:37:42.178Z,20.30
2019-05-11T12:40:10.664Z,20.41
2019-05-11T12:42:38.546Z,20.14
2019-05-11T12:45:07.729Z,20.14
2019-05-11T12:47:35.507Z,20.33
2019-05-11T12:50:05.027Z,19.94
2019-05-11T12:52:32.639Z,20.06
2019-05-11T12:55:00.597Z,19.95
2019-05-11T12:57:28.509Z,19.98
2019-05-11T12:59:58.273Z,20.11
2019-05-11T13:02:27.469Z,19.88
2019-05-11T13:04:55.366Z,19.97
2019-05-11T13:07:22.927Z,20.02
2019-05-11T13:09:50.820Z,20.17
2019-05-11T13:12:19.092Z,20.63
2019-05-11T13:14:48.898Z,20.10
2019-05-11T13:17:18.732Z,20.25
2019-05-11T13:19:47.954Z,20.06
2019-05-11T13:22:18.306Z,20.45
2019-05-11T13:24:48.095Z,20.18
2019-05-11T13:27:17.931Z,20.22
2019-05-11T13:29:45.403Z,20.33
2019-05-11T13:32:13.265Z,20.13
2019-05-11T13:34:40.947Z,20.41
2019-05-11T13:37:08.707Z,20.17
2019-05-11T13:39:38.509Z,20.14
2019-05-11T13:42:08.168Z,20.08
2019-05-11T13:44:35.974Z,20.31
2019-05-11T13:47:03.963Z,20.48
2019-05-11T13:49:32.565Z,19.72
2019-05-11T13:52:00.707Z,19.86
2019-05-11T13:54:29.761Z,20.09
2019-05-11T13:56:57.818Z,20.05
2019-05-11T13:59:27.860Z,20.33
2019-05-11T14:01:55.136Z,20.34
2019-05-11T14:04:22.911Z,20.43
2019-05-11T14:06:50.768Z,20.54
2019-05-11T14:09:18.702Z,20.48
2019-05-11T14:11:47.833Z,20.45
2019-05-11T14:14:18.192Z,20.15
2019-05-11T14:16:48.316Z,20.09
2019-05-11T14:19:17.606Z,20.00
2019-05-11T14:21:44.931Z,19.93
2019-05-11T14:24:13.210Z,19.97
2019-05-11T14:26:40.988Z,19.91
2019-05-11T14:29:09.620Z,19.98
2019-05-11T14:31:38.687Z,19.95
2019-05-11T14:34:08.769Z,19.93
2019-05-11T14:36:38.512Z,19.99
2019-05-11T14:39:08.363Z,20.00
2019-05-11T14:41:38.073Z,19.73
2019-05-11T14:44:08.762Z,19.86
2019-05-11T14:46:38.250Z,19.76
2019-05-11T14:49:07.726Z,19.94
2019-05-11T14:51:35.401Z,19.65
2019-05-11T14:54:03.068Z,19.51
2019-05-11T14:56:30.739Z,19.75
2019-05-11T14:58:58.489Z,19.63
2019-05-11T15:01:25.950Z,19.57
2019-05-11T15:03:53.936Z,19.78
2019-05-11T15:06:21.781Z,19.68
2019-05-11T15:08:49.613Z,19.76
2019-05-11T15:11:19.126Z,19.72
2019-05-11T15:13:48.828Z,19.49
2019-05-11T15:16:18.483Z,19.23
2019-05-11T15:18:48.242Z,19.12
2019-05-11T15:21:15.448Z,19.13
2019-05-11T15:23:43.095Z,19.17
2019-05-11T15:26:10.966Z,19.25
2019-05-11T15:28:39.642Z,19.18
2019-05-11T15:31:08.187Z,19.22
2019-05-11T15:33:38.028Z,19.21
2019-05-11T15:36:07.450Z,19.06
2019-05-11T15:38:37.691Z,19.17
2019-05-11T15:41:04.728Z,19.15
2019-05-11T15:43:32.473Z,19.06
2019-05-11T15:46:00.341Z,18.92
2019-05-11T15:48:28.948Z,18.96
2019-05-11T15:50:57.777Z,18.95
2019-05-11T15:53:25.986Z,19.08
2019-05-11T15:55:53.631Z,18.98
2019-05-11T15:58:21.792Z,18.87
2019-05-11T16:00:49.907Z,18.75
2019-05-11T16:03:18.601Z,18.79
2019-05-11T16:05:47.931Z,18.59
2019-05-11T16:08:18.633Z,18.52
2019-05-11T16:10:45.636Z,18.60
2019-05-11T16:13:13.422Z,18.54
2019-05-11T16:15:41.196Z,18.44
2019-05-11T16:18:09.054Z,18.19
2019-05-11T16:20:36.722Z,18.13
2019-05-11T16:23:04.560Z,17.98
2019-05-11T16:25:32.348Z,17.88
2019-05-11T16:27:59.904Z,17.73
2019-05-11T16:30:28.726Z,17.92
2019-05-11T16:32:58.103Z,18.05
2019-05-11T16:35:27.991Z,18.05
2019-05-11T16:37:55.788Z,17.92
2019-05-11T16:40:23.637Z,17.86
2019-05-11T16:42:51.404Z,17.94
2019-05-11T16:45:19.637Z,17.85
2019-05-11T16:47:48.343Z,17.54
2019-05-11T16:50:18.070Z,17.60
2019-05-11T16:52:48.184Z,17.47
2019-05-11T16:55:18.064Z,17.47
2019-05-11T16:57:48.303Z,17.29
2019-05-11T17:00:16.397Z,17.06
2019-05-11T17:02:43.967Z,16.69
2019-05-11T17:05:25.347Z,16.36
2019-05-11T17:07:41.426Z,16.22
2019-05-11T17:10:09.413Z,16.04
2019-05-11T17:12:38.572Z,15.86
2019-05-11T17:15:08.937Z,15.28
2019-05-11T17:17:36.901Z,15.28
2019-05-11T17:20:07.984Z,15.10
2019-05-11T17:22:38.763Z,14.77
2019-05-11T17:25:08.566Z,14.62
2019-05-11T17:27:37.648Z,14.24
2019-05-11T17:30:08.654Z,14.12
2019-05-11T17:32:38.311Z,14.00
2019-05-11T17:35:08.472Z,13.91
2019-05-11T17:37:38.115Z,13.95
2019-05-11T17:40:09.583Z,13.85
2019-05-11T17:42:37.846Z,13.51
2019-05-11T17:45:09.021Z,13.24
2019-05-11T17:47:38.886Z,12.90
2019-05-11T17:50:08.143Z,12.79
2019-05-11T17:52:38.388Z,12.66
2019-05-11T17:55:07.048Z,12.46
2019-05-11T17:57:38.103Z,12.40
2019-05-11T18:00:07.070Z,12.32
2019-05-11T18:02:34.931Z,12.32
2019-05-11T18:05:03.413Z,12.32
2019-05-11T18:07:31.483Z,12.53
2019-05-11T18:09:59.256Z,12.71
2019-05-11T18:12:28.590Z,12.61
2019-05-11T18:14:58.590Z,12.61
2019-05-11T18:17:26.436Z,12.49
2019-05-11T18:19:53.901Z,12.52
2019-05-11T18:22:21.549Z,12.52
2019-05-11T18:24:49.411Z,12.42
2019-05-11T18:27:18.472Z,12.27
2019-05-11T18:29:48.467Z,12.24
2019-05-11T18:32:16.187Z,12.43
2019-05-11T18:34:43.622Z,12.31
2019-05-11T18:37:11.509Z,12.15
2019-05-11T18:39:39.476Z,11.95
2019-05-11T18:42:08.264Z,11.79
2019-05-11T18:44:37.963Z,11.60
2019-05-11T18:47:05.617Z,11.56
2019-05-11T18:49:33.293Z,11.55
2019-05-11T18:52:01.060Z,11.64
2019-05-11T18:54:28.743Z,11.60
2019-05-11T18:56:58.797Z,11.66
2019-05-11T18:59:28.288Z,11.66
2019-05-11T19:01:56.007Z,11.31
2019-05-11T19:04:23.878Z,11.44
2019-05-11T19:06:51.957Z,11.29
2019-05-11T19:09:19.712Z,11.16
2019-05-11T19:11:48.950Z,11.12
2019-05-11T19:14:17.806Z,11.11
2019-05-11T19:16:45.639Z,10.99
2019-05-11T19:19:13.594Z,11.01
2019-05-11T19:21:41.409Z,10.80
2019-05-11T19:24:09.499Z,10.78
2019-05-11T19:26:37.147Z,10.67
2019-05-11T19:29:04.986Z,10.59
2019-05-11T19:31:32.646Z,10.50
2019-05-11T19:34:00.415Z,10.57
2019-05-11T19:36:28.289Z,10.63
2019-05-11T19:38:58.300Z,10.79
2019-05-11T19:41:27.837Z,10.61
2019-05-11T19:43:57.316Z,10.51
2019-05-11T19:46:24.621Z,10.36
2019-05-11T19:48:52.852Z,10.24
2019-05-11T19:51:20.705Z,10.19
2019-05-11T19:53:48.667Z,10.22
2019-05-11T19:56:18.308Z,10.29
2019-05-11T19:58:48.431Z,10.20
2019-05-11T20:01:15.950Z,10.14
2019-05-11T20:03:43.728Z,10.08
2019-05-11T20:06:11.560Z,10.02
2019-05-11T20:08:38.933Z,10.08
2019-05-11T20:11:08.259Z,9.92
2019-05-11T20:13:38.640Z,9.84
2019-05-11T20:16:08.117Z,9.68
2019-05-11T20:18:35.013Z,9.64
2019-05-11T20:21:15.462Z,9.73
2019-05-11T20:23:32.171Z,9.57
2019-05-11T20:25:59.952Z,9.48
2019-05-11T20:28:28.471Z,9.41
2019-05-11T20:30:58.279Z,9.39
2019-05-11T20:33:27.974Z,9.43
2019-05-11T20:35:58.175Z,9.50
2019-05-11T20:38:27.993Z,9.48
2019-05-11T20:40:57.613Z,9.48
2019-05-11T20:43:24.953Z,9.44
2019-05-11T20:45:56.024Z,9.31
2019-05-11T20:48:22.401Z,9.29
2019-05-11T20:50:49.990Z,9.19
2019-05-11T20:53:18.211Z,9.11
2019-05-11T20:55:47.903Z,9.18
2019-05-11T20:58:18.811Z,9.40
2019-05-11T21:00:48.454Z,9.36
2019-05-11T21:03:15.627Z,9.44
2019-05-11T21:05:43.402Z,9.67
2019-05-11T21:08:10.977Z,9.57
2019-05-11T21:10:38.880Z,9.44
2019-05-11T21:13:08.577Z,9.31
2019-05-11T21:15:38.439Z,9.20
2019-05-11T21:18:07.914Z,9.07
2019-05-11T21:20:38.034Z,8.99
2019-05-11T21:23:08.188Z,8.96
2019-05-11T21:25:37.803Z,9.11
2019-05-11T21:28:05.769Z,9.06
2019-05-11T21:30:33.439Z,8.93
2019-05-11T21:33:01.405Z,9.17
2019-05-11T21:35:28.968Z,9.52
2019-05-11T21:37:57.999Z,9.27
2019-05-11T21:40:25.926Z,9.40
2019-05-11T21:42:53.887Z,9.15
2019-05-11T21:45:21.619Z,9.31
2019-05-11T21:47:49.526Z,9.49
2019-05-11T21:50:19.042Z,9.43
2019-05-11T21:52:48.447Z,9.29
2019-05-11T21:55:16.407Z,9.18
2019-05-11T21:57:44.049Z,9.26
2019-05-11T22:00:12.455Z,9.19
2019-05-11T22:02:41.948Z,9.00
2019-05-11T22:05:13.692Z,9.01
2019-05-11T22:07:42.135Z,8.92
2019-05-11T22:10:10.476Z,8.88
2019-05-11T22:12:39.232Z,8.78
2019-05-11T22:15:09.763Z,8.73
2019-05-11T22:17:39.359Z,8.72
2019-05-11T22:20:08.470Z,8.59
2019-05-11T22:22:38.575Z,8.63
2019-05-11T22:25:07.869Z,8.65
2019-05-11T22:27:38.390Z,8.59
2019-05-11T22:30:08.476Z,8.49
2019-05-11T22:32:38.498Z,8.42
2019-05-11T22:35:07.443Z,8.49
2019-05-11T22:37:35.096Z,8.45
2019-05-11T22:40:04.573Z,8.31
2019-05-11T22:42:32.471Z,8.30
2019-05-11T22:45:00.336Z,8.27
2019-05-11T22:47:28.466Z,8.20
2019-05-11T22:49:58.319Z,8.13
2019-05-11T22:52:36.144Z,7.99
2019-05-11T22:54:59.036Z,8.03
2019-05-11T22:57:27.036Z,7.94
2019-05-11T22:59:54.709Z,7.92
2019-05-11T23:02:22.155Z,7.92
2019-05-11T23:04:50.340Z,7.90
2019-05-11T23:07:18.589Z,7.80
2019-05-11T23:09:46.776Z,7.72
2019-05-11T23:12:14.442Z,7.63
2019-05-11T23:14:42.202Z,7.70
2019-05-11T23:17:09.644Z,7.65
2019-05-11T23:19:38.253Z,7.62
2019-05-11T23:22:08.254Z,7.60
2019-05-11T23:24:35.929Z,7.64
2019-05-11T23:27:03.897Z,7.38
2019-05-11T23:29:31.632Z,7.49
2019-05-11T23:31:59.417Z,7.35
2019-05-11T23:34:28.241Z,7.46
2019-05-11T23:36:55.987Z,7.38
2019-05-11T23:39:23.846Z,7.28
2019-05-11T23:41:51.708Z,7.27
2019-05-11T23:44:19.460Z,7.37
2019-05-11T23:46:47.871Z,7.31
2019-05-11T23:49:17.991Z,7.33
2019-05-11T23:51:47.762Z,7.32
2019-05-11T23:54:15.447Z,7.35
2019-05-11T23:56:43.213Z,7.28
2019-05-11T23:59:11.062Z,7.31
